Chandler Field Alexandria US
ICAO: KAXN
IATA: AXN
Category: Medium
Scheduled Services: No

Elevation: 1425 ft
TransAlt. 18000 ft.

Airport Communications:
ASOS:118.375
MINNEAPOLIS CNTR:126.1
PRINCETON RDO:122.6
CTAF/UNICOM:123

KAXN Zoom In..

Runways:

(A) RW 04 length 4098 ft width 75 ft
---- / hdg 45

(B) RW 13 length 5099 ft width 100 ft
---- / hdg 135

(C) RW 22 length 4098 ft width 75 ft
---- / hdg 225

(D) RW 31 length 5099 ft width 100 ft
ILS 110.50 / hdg 315

Location; KAXN
Day. 19 / Time. 19.53 Zulu
* Altimeter: 30.44
* Temperature: 12° c. 53.6°f.
* Wind from: 240° Speed 05 kn.
Dewpoint: -03° c.
Visibility: 10 Statute Miles.
Clouds: Clear (automated report).

KAXN 191953Z AUTO 24005KT 10SM CLR 12/M03 A3044 RMK AO2 SLP321 T01171033


Wind From 240°
Speed 05 kn.

  YouTube Music Video
 
jpsmedia.com for Web Design  worldairports.se 2018   terms of use